Time;durP1;ratioP1;P1;durP2;ratioP2;P2;SDS_P1;SDS_P2;PMS_P1;PMS_P2;Temp;Humidity;BMP_temperature;BMP_pressure;BME280_temperature;BME280_humidity;BME280_pressure;Samples;Min_cycle;Max_cycle;Signal;HPM_P1;HPM_P2
2021/12/22 00:02:11;;;;;;;38.10;17.77;;;-0.10;99.90;;;;;;5017667;28;20029;-90
2021/12/22 00:04:44;;;;;;;41.40;17.83;;;-0.10;99.90;;;;;;5018895;28;20057;-91
2021/12/22 00:07:11;;;;;;;35.30;16.43;;;-0.10;99.90;;;;;;5037573;28;20013;-90
2021/12/22 00:09:37;;;;;;;36.37;16.53;;;-0.10;99.90;;;;;;5020884;28;20534;-91
2021/12/22 00:12:04;;;;;;;37.60;16.40;;;0.00;99.90;;;;;;5020737;28;20040;-91
2021/12/22 00:14:29;;;;;;;40.47;16.67;;;-0.10;99.90;;;;;;5000125;28;20033;-90
2021/12/22 00:16:55;;;;;;;37.23;16.40;;;-0.10;99.90;;;;;;5000498;28;20045;-91
2021/12/22 00:19:21;;;;;;;35.90;16.40;;;-0.10;99.90;;;;;;5000573;28;20037;-91
2021/12/22 00:21:47;;;;;;;36.27;17.37;;;-0.10;99.90;;;;;;5000537;28;20041;-90
2021/12/22 00:24:15;;;;;;;37.03;16.53;;;-0.10;99.90;;;;;;5001075;28;20120;-91
2021/12/22 00:26:42;;;;;;;37.90;16.08;;;-0.10;99.90;;;;;;5001708;28;20129;-91
2021/12/22 00:29:08;;;;;;;37.50;15.47;;;-0.10;99.90;;;;;;5001042;28;20076;-91
2021/12/22 00:31:42;;;;;;;36.27;16.40;;;-0.10;99.90;;;;;;5001240;28;20037;-91
2021/12/22 00:34:16;;;;;;;36.20;16.93;;;-0.10;99.90;;;;;;5001435;28;20302;-91
2021/12/22 00:36:43;;;;;;;36.83;16.30;;;-0.20;99.90;;;;;;5000965;28;20083;-91
2021/12/22 00:39:09;;;;;;;37.67;16.67;;;-0.20;99.90;;;;;;5000417;28;20021;-90
2021/12/22 00:41:35;;;;;;;33.07;15.30;;;-0.20;99.90;;;;;;5001064;28;20079;-91
2021/12/22 00:44:01;;;;;;;37.33;17.57;;;-0.20;99.90;;;;;;5001030;28;20033;-91
2021/12/22 00:46:27;;;;;;;33.17;15.23;;;-0.20;99.90;;;;;;5001687;28;20061;-90
2021/12/22 00:48:52;;;;;;;34.13;15.93;;;-0.20;99.90;;;;;;5002312;28;20033;-90
2021/12/22 00:51:18;;;;;;;31.33;15.03;;;-0.20;99.90;;;;;;5020247;28;20093;-90
2021/12/22 00:53:44;;;;;;;30.53;14.73;;;-0.20;99.90;;;;;;5020434;28;20033;-91
2021/12/22 00:56:10;;;;;;;34.30;14.93;;;-0.20;99.90;;;;;;5020907;28;20036;-91
2021/12/22 00:58:36;;;;;;;34.10;14.73;;;-0.20;99.90;;;;;;5020498;28;20100;-92
2021/12/22 01:01:04;;;;;;;34.33;14.90;;;-0.20;99.90;;;;;;5017508;28;20123;-91
2021/12/22 01:03:36;;;;;;;32.57;15.37;;;-0.20;99.90;;;;;;5016891;28;20045;-90
2021/12/22 01:06:03;;;;;;;34.13;15.83;;;-0.20;99.90;;;;;;5016998;28;20096;-90
2021/12/22 01:08:28;;;;;;;30.37;14.30;;;-0.30;99.90;;;;;;5016274;28;20017;-90
2021/12/22 01:10:54;;;;;;;32.13;14.97;;;-0.30;99.90;;;;;;5006488;28;20037;-90
2021/12/22 01:13:20;;;;;;;29.63;14.70;;;-0.20;99.90;;;;;;4999575;28;20030;-90
2021/12/22 01:15:46;;;;;;;33.70;14.47;;;-0.30;99.90;;;;;;4999817;28;20041;-90
2021/12/22 01:18:26;;;;;;;29.60;14.67;;;-0.30;99.90;;;;;;4999836;28;20033;-90
2021/12/22 01:23:20;;;;;;;31.57;14.27;;;-0.30;99.90;;;;;;5030576;28;20032;-91
2021/12/22 01:25:48;;;;;;;30.57;13.70;;;-0.40;99.90;;;;;;5014948;28;20036;-90
2021/12/22 01:28:15;;;;;;;28.43;13.90;;;-0.30;99.90;;;;;;4999142;28;20091;-91
2021/12/22 01:30:47;;;;;;;30.63;13.60;;;-0.40;99.90;;;;;;5015161;28;20037;-90
2021/12/22 01:33:13;;;;;;;;;;;-0.40;99.90;;;;;;4999708;28;20476;-90
2021/12/22 01:35:40;;;;;;;30.13;14.03;;;-0.40;99.90;;;;;;4999103;28;19920;-89
2021/12/22 01:38:06;;;;;;;29.93;13.27;;;-0.40;99.90;;;;;;4999523;28;20033;-90
2021/12/22 01:40:34;;;;;;;29.53;14.33;;;-0.40;99.90;;;;;;5009536;28;20032;-89
2021/12/22 01:43:02;;;;;;;31.63;13.93;;;-0.40;99.90;;;;;;4999008;28;20053;-91
2021/12/22 01:46:07;;;;;;;27.77;13.40;;;-0.40;99.90;;;;;;4998596;28;20484;-90
2021/12/22 01:49:10;;;;;;;28.57;13.73;;;-0.40;99.90;;;;;;4998551;28;20033;-89
2021/12/22 01:51:51;;;;;;;30.43;13.50;;;-0.40;99.90;;;;;;5032634;28;20107;-90
2021/12/22 01:54:20;;;;;;;28.33;13.57;;;-0.40;99.90;;;;;;5019028;28;20033;-90
2021/12/22 01:56:47;;;;;;;28.45;14.02;;;-0.40;99.90;;;;;;4998311;28;20456;-91
2021/12/22 01:59:17;;;;;;;28.23;14.03;;;-0.50;99.90;;;;;;4998288;28;20118;-90
2021/12/22 02:01:42;;;;;;;;;;;-0.50;99.90;;;;;;5015166;28;20064;-90
2021/12/22 02:04:13;;;;;;;30.13;13.45;;;-0.50;99.90;;;;;;5015173;28;19932;-90
2021/12/22 02:06:40;;;;;;;30.40;14.50;;;-0.50;99.90;;;;;;4998299;28;20044;-91
2021/12/22 02:09:06;;;;;;;31.67;14.30;;;-0.50;99.90;;;;;;4998218;28;20112;-91
2021/12/22 02:11:32;;;;;;;28.57;13.43;;;-0.50;99.90;;;;;;4999142;28;20080;-90
2021/12/22 02:14:02;;;;;;;29.40;14.17;;;-0.50;99.90;;;;;;5015092;28;20087;-91
2021/12/22 02:16:32;;;;;;;32.33;13.60;;;-0.50;99.90;;;;;;4999324;28;20026;-91
2021/12/22 02:18:59;;;;;;;29.03;13.90;;;-0.50;99.90;;;;;;5000141;28;20030;-90
2021/12/22 02:21:29;;;;;;;27.70;13.77;;;-0.50;99.90;;;;;;4998145;28;20464;-90
2021/12/22 02:23:55;;;;;;;;;;;-0.50;99.90;;;;;;4998305;28;20037;-90
2021/12/22 02:26:31;;;;;;;31.13;14.33;;;-0.50;99.90;;;;;;4998182;28;19905;-90
2021/12/22 02:29:01;;;;;;;30.07;13.90;;;-0.60;99.90;;;;;;4997581;28;20038;-91
2021/12/22 02:31:34;;;;;;;29.60;13.68;;;-0.50;99.90;;;;;;4998066;28;20057;-91
2021/12/22 02:33:59;;;;;;;28.63;12.60;;;-0.50;99.90;;;;;;4997910;28;20052;-90
2021/12/22 02:36:29;;;;;;;28.80;13.37;;;-0.60;99.90;;;;;;4998471;28;20021;-91
2021/12/22 02:39:00;;;;;;;27.60;13.93;;;-0.60;99.90;;;;;;5001262;28;20057;-90
2021/12/22 02:41:29;;;;;;;25.03;12.53;;;-0.60;99.90;;;;;;5001682;28;20152;-90
2021/12/22 02:43:57;;;;;;;27.45;13.25;;;-0.60;99.90;;;;;;5001329;28;20389;-91
2021/12/22 02:46:29;;;;;;;28.13;13.10;;;-0.70;99.90;;;;;;5001416;28;20026;-91
2021/12/22 02:48:56;;;;;;;26.73;13.03;;;-0.70;99.90;;;;;;5017387;28;20491;-91
2021/12/22 02:51:23;;;;;;;33.50;12.97;;;-0.70;99.90;;;;;;5001162;28;20056;-91
2021/12/22 02:56:32;;;;;;;27.27;12.77;;;-0.70;99.90;;;;;;5017597;28;20033;-91
2021/12/22 02:59:09;;;;;;;27.77;13.10;;;-0.70;99.90;;;;;;5001137;28;20120;-90
2021/12/22 03:04:09;;;;;;;24.07;12.70;;;-0.70;99.90;;;;;;5017288;28;20443;-91
2021/12/22 03:06:40;;;;;;;26.43;12.87;;;-0.70;99.90;;;;;;5000981;28;20033;-90
2021/12/22 03:09:20;;;;;;;27.80;12.57;;;-0.70;99.90;;;;;;5017066;28;20112;-90
2021/12/22 03:11:47;;;;;;;27.80;13.13;;;-0.70;99.90;;;;;;5000906;28;20032;-91
2021/12/22 03:14:14;;;;;;;24.87;12.37;;;-0.70;99.90;;;;;;5001059;28;20407;-91
2021/12/22 03:16:43;;;;;;;29.93;13.10;;;-0.70;99.90;;;;;;5000768;28;20076;-90
2021/12/22 03:19:10;;;;;;;28.58;13.73;;;-0.70;99.90;;;;;;5000474;28;20032;-90
2021/12/22 03:21:37;;;;;;;27.43;12.17;;;-0.80;99.90;;;;;;5000755;28;20052;-90
2021/12/22 03:24:03;;;;;;;26.83;12.60;;;-0.80;99.90;;;;;;5000598;28;20033;-91
2021/12/22 03:26:30;;;;;;;27.10;12.03;;;-0.80;99.90;;;;;;5000378;28;20183;-90
2021/12/22 03:28:56;;;;;;;24.87;12.07;;;-0.80;99.90;;;;;;5000593;28;20033;-90
2021/12/22 03:31:21;;;;;;;26.20;12.97;;;-0.80;99.90;;;;;;5024175;23;20030;-87
2021/12/22 03:33:47;;;;;;;25.23;11.80;;;-0.80;99.90;;;;;;5016489;28;20056;-89
2021/12/22 03:36:13;;;;;;;24.13;11.33;;;-0.80;99.90;;;;;;5016432;28;20491;-87
2021/12/22 03:38:39;;;;;;;24.30;11.77;;;-0.80;99.90;;;;;;5015774;28;20083;-87
2021/12/22 03:41:07;;;;;;;26.00;12.13;;;-0.80;99.90;;;;;;5032534;28;20471;-87
2021/12/22 03:43:33;;;;;;;25.23;11.30;;;-0.80;99.90;;;;;;5034017;28;20492;-87
2021/12/22 03:45:58;;;;;;;28.87;12.60;;;-0.80;99.90;;;;;;4999600;28;20033;-87
2021/12/22 03:48:25;;;;;;;27.87;12.73;;;-0.80;99.90;;;;;;4999104;28;20034;-88
2021/12/22 03:50:52;;;;;;;25.30;12.33;;;-0.70;99.90;;;;;;4999480;28;20033;-88
2021/12/22 03:53:18;;;;;;;24.23;11.80;;;-0.80;99.90;;;;;;4999612;28;20033;-87
2021/12/22 03:55:44;;;;;;;27.10;11.43;;;-0.70;99.90;;;;;;4999619;28;20125;-87
2021/12/22 03:58:09;;;;;;;23.30;12.20;;;-0.80;99.90;;;;;;4999004;28;20400;-87
2021/12/22 04:00:38;;;;;;;25.40;11.40;;;-0.80;99.90;;;;;;5015675;28;20422;-87
2021/12/22 04:03:05;;;;;;;28.23;13.23;;;-0.80;99.90;;;;;;4999366;28;20030;-88
2021/12/22 04:05:31;;;;;;;25.93;12.50;;;-0.80;99.90;;;;;;5015724;28;20034;-88
2021/12/22 04:07:57;;;;;;;29.73;11.90;;;-0.70;99.90;;;;;;4998971;28;20124;-88
2021/12/22 04:10:25;;;;;;;22.40;11.70;;;-0.70;99.90;;;;;;4999328;28;20029;-88
2021/12/22 04:12:59;;;;;;;30.27;12.47;;;-0.70;99.90;;;;;;5015352;28;20491;-87
2021/12/22 04:15:27;;;;;;;28.30;13.03;;;-0.70;99.90;;;;;;4999291;28;20057;-87
2021/12/22 04:17:53;;;;;;;29.40;12.67;;;-0.70;99.90;;;;;;5014988;28;20025;-87
2021/12/22 04:20:19;;;;;;;34.60;13.73;;;-0.60;99.90;;;;;;4999008;28;20022;-87
2021/12/22 04:22:45;;;;;;;27.17;12.20;;;-0.60;99.90;;;;;;5017501;28;20025;-88
2021/12/22 04:25:12;;;;;;;26.83;12.67;;;-0.60;99.90;;;;;;5035049;28;20078;-87
2021/12/22 04:27:38;;;;;;;26.60;12.73;;;-0.70;99.90;;;;;;4999603;28;20063;-87
2021/12/22 04:30:06;;;;;;;25.00;12.23;;;-0.70;99.90;;;;;;5002307;28;20128;-87
2021/12/22 04:32:32;;;;;;;28.50;12.87;;;-0.70;99.90;;;;;;5002033;28;20030;-87
2021/12/22 04:34:58;;;;;;;29.20;13.10;;;-0.80;99.90;;;;;;5017908;28;20147;-87
2021/12/22 04:37:23;;;;;;;25.87;11.97;;;-0.80;99.90;;;;;;4998941;28;20128;-86
2021/12/22 04:39:49;;;;;;;30.33;12.70;;;-0.80;99.90;;;;;;4998374;28;20179;-86
2021/12/22 04:42:16;;;;;;;24.77;12.43;;;-0.80;99.90;;;;;;5015213;28;20038;-86
2021/12/22 04:44:42;;;;;;;26.57;12.97;;;-0.80;99.90;;;;;;4998708;28;20025;-86
2021/12/22 04:47:07;;;;;;;27.77;12.40;;;-0.80;99.90;;;;;;4998784;28;20395;-86
2021/12/22 04:49:33;;;;;;;28.30;13.10;;;-0.80;99.90;;;;;;5014972;28;20025;-87
2021/12/22 04:52:02;;;;;;;26.93;13.10;;;-0.80;99.90;;;;;;5015094;28;20619;-86
2021/12/22 04:56:55;;;;;;;26.53;12.67;;;-0.80;99.90;;;;;;5014950;28;20400;-85
2021/12/22 04:59:21;;;;;;;26.50;12.80;;;-0.80;99.90;;;;;;4997707;28;20076;-86
2021/12/22 05:01:47;;;;;;;25.23;12.93;;;-0.90;99.90;;;;;;5014619;28;20033;-85
2021/12/22 05:04:13;;;;;;;29.13;13.03;;;-0.90;99.90;;;;;;4998329;28;20040;-86
2021/12/22 05:06:40;;;;;;;29.63;12.90;;;-0.90;99.90;;;;;;5032310;28;20486;-86
2021/12/22 05:09:07;;;;;;;26.93;12.83;;;-0.90;99.90;;;;;;4997832;28;20120;-85
2021/12/22 05:11:33;;;;;;;28.00;12.17;;;-0.90;99.90;;;;;;5031970;28;20365;-86
2021/12/22 05:14:02;;;;;;;28.00;12.97;;;-0.90;99.90;;;;;;5014639;28;20083;-86
2021/12/22 05:16:28;;;;;;;30.95;12.32;;;-0.90;99.90;;;;;;4998298;28;20044;-85
2021/12/22 05:19:10;;;;;;;24.97;11.53;;;-1.00;99.90;;;;;;5013957;28;20033;-85
2021/12/22 05:21:36;;;;;;;26.83;12.60;;;-1.00;99.90;;;;;;5014379;28;20033;-87
2021/12/22 05:24:01;;;;;;;26.57;12.53;;;-1.00;99.90;;;;;;5014527;28;20372;-87
2021/12/22 05:26:28;;;;;;;28.33;13.67;;;-1.10;99.90;;;;;;5014469;28;20033;-87
2021/12/22 05:28:55;;;;;;;24.53;12.27;;;-1.10;99.90;;;;;;5014012;28;20029;-87
2021/12/22 05:31:24;;;;;;;30.80;13.07;;;-1.10;99.90;;;;;;5014033;28;20316;-87
2021/12/22 05:33:50;;;;;;;24.33;11.90;;;-1.10;99.90;;;;;;4998072;28;20044;-87
2021/12/22 05:36:17;;;;;;;25.73;11.83;;;-1.10;99.90;;;;;;5014286;28;20047;-87
2021/12/22 05:38:43;;;;;;;28.73;12.00;;;-1.10;99.90;;;;;;5031430;28;20026;-87
2021/12/22 05:41:09;;;;;;;24.43;11.90;;;-1.10;99.90;;;;;;5014184;28;20087;-85
2021/12/22 05:43:34;;;;;;;25.30;11.60;;;-1.10;99.90;;;;;;5014397;28;20026;-85
2021/12/22 05:46:01;;;;;;;24.47;11.53;;;-1.10;99.90;;;;;;5014360;28;20032;-86
2021/12/22 05:48:27;;;;;;;27.37;12.60;;;-1.10;99.90;;;;;;5031420;28;20541;-86
2021/12/22 05:50:57;;;;;;;25.13;12.37;;;-1.10;99.90;;;;;;5014365;28;20057;-86
2021/12/22 05:53:24;;;;;;;28.37;12.10;;;-1.00;99.90;;;;;;4997877;28;20131;-85
2021/12/22 05:55:50;;;;;;;26.03;12.07;;;-1.00;99.90;;;;;;5014494;28;20501;-85
2021/12/22 05:58:16;;;;;;;23.87;11.53;;;-1.00;99.90;;;;;;5013686;28;20496;-87
2021/12/22 06:00:43;;;;;;;26.93;11.70;;;-1.10;99.90;;;;;;5014110;28;20108;-85
2021/12/22 06:03:11;;;;;;;25.87;12.37;;;-1.10;99.90;;;;;;5013901;28;20150;-85
2021/12/22 06:05:38;;;;;;;22.13;11.67;;;-1.00;99.90;;;;;;4997776;28;20720;-86
2021/12/22 06:08:05;;;;;;;22.93;11.40;;;-1.10;99.90;;;;;;5013464;28;20511;-85
2021/12/22 06:10:34;;;;;;;24.07;11.90;;;-1.10;99.90;;;;;;4998063;28;20030;-86
2021/12/22 06:13:02;;;;;;;24.38;11.40;;;-1.20;99.90;;;;;;5017004;28;20084;-85
2021/12/22 06:15:28;;;;;;;22.83;10.67;;;-1.20;99.90;;;;;;5018119;28;20169;-85
2021/12/22 06:17:56;;;;;;;23.73;10.27;;;-1.10;99.90;;;;;;5000880;28;20119;-85
2021/12/22 06:20:23;;;;;;;26.23;10.83;;;-1.20;99.90;;;;;;5001271;28;20037;-86
2021/12/22 06:22:49;;;;;;;23.60;10.80;;;-1.20;99.90;;;;;;5001442;28;20458;-86
2021/12/22 06:25:14;;;;;;;25.80;11.40;;;-1.20;99.90;;;;;;5001190;28;20180;-85
2021/12/22 06:27:40;;;;;;;21.80;10.80;;;-1.20;99.90;;;;;;5000753;28;20472;-86
2021/12/22 06:30:06;;;;;;;21.90;10.30;;;-1.10;99.90;;;;;;5001340;28;20132;-86
2021/12/22 06:32:32;;;;;;;23.67;10.90;;;-1.00;99.90;;;;;;5017210;28;20037;-86
2021/12/22 06:34:58;;;;;;;24.00;10.63;;;-0.90;99.90;;;;;;5001189;28;20044;-85
2021/12/22 06:37:24;;;;;;;18.63;9.90;;;-1.00;99.90;;;;;;5001870;28;20488;-87
2021/12/22 06:39:50;;;;;;;18.37;8.83;;;-1.00;99.90;;;;;;5002495;28;20094;-88
2021/12/22 06:42:16;;;;;;;22.23;9.23;;;-1.10;99.90;;;;;;5036221;28;20030;-86
2021/12/22 06:44:42;;;;;;;19.97;9.43;;;-1.10;99.90;;;;;;5002832;28;20028;-86
2021/12/22 06:47:10;;;;;;;22.60;9.20;;;-1.10;99.90;;;;;;5002278;28;20455;-86
2021/12/22 06:49:37;;;;;;;20.07;8.73;;;-1.10;99.90;;;;;;5036374;28;20502;-86
2021/12/22 06:52:03;;;;;;;21.13;8.50;;;-1.10;99.90;;;;;;5002346;28;20068;-86
2021/12/22 06:54:29;;;;;;;20.30;8.37;;;-1.10;99.90;;;;;;5018421;28;20033;-86
2021/12/22 06:56:56;;;;;;;18.67;8.67;;;-1.00;99.90;;;;;;5001987;28;20068;-87
2021/12/22 06:59:21;;;;;;;17.00;7.93;;;-1.10;99.90;;;;;;5018364;28;20032;-87
2021/12/22 07:01:49;;;;;;;18.67;8.50;;;-1.10;99.90;;;;;;5018149;28;20391;-87
2021/12/22 07:04:15;;;;;;;17.73;8.00;;;-1.00;99.90;;;;;;5018512;28;20022;-86
2021/12/22 07:06:41;;;;;;;17.70;8.70;;;-1.10;99.90;;;;;;5018169;28;20052;-87
2021/12/22 07:09:08;;;;;;;16.13;7.90;;;-1.10;99.90;;;;;;5018149;28;20036;-86
2021/12/22 07:11:35;;;;;;;17.33;8.37;;;-1.00;99.90;;;;;;5001707;28;20025;-86
2021/12/22 07:14:03;;;;;;;18.70;7.80;;;-0.90;99.90;;;;;;5017936;28;20084;-86
2021/12/22 07:16:29;;;;;;;15.27;7.23;;;-0.80;99.90;;;;;;5001738;28;20430;-86
2021/12/22 07:18:56;;;;;;;12.57;5.03;;;-0.70;99.90;;;;;;5002019;28;20029;-86
2021/12/22 07:21:22;;;;;;;11.20;5.40;;;-0.60;99.90;;;;;;5018352;28;20036;-87
2021/12/22 07:23:49;;;;;;;12.07;4.50;;;-0.40;99.90;;;;;;5018034;28;20399;-87
2021/12/22 07:26:15;;;;;;;9.67;4.40;;;-0.40;99.90;;;;;;5036177;28;20029;-87
2021/12/22 07:28:46;;;;;;;11.47;4.93;;;-0.30;99.90;;;;;;5002082;28;20108;-87
2021/12/22 07:31:13;;;;;;;8.43;4.03;;;-0.20;99.90;;;;;;5001965;28;20194;-87
2021/12/22 07:33:42;;;;;;;9.33;4.47;;;-0.20;99.90;;;;;;5017819;28;20045;-87
2021/12/22 07:36:08;;;;;;;10.02;4.88;;;-0.10;99.90;;;;;;5018568;28;20041;-87
2021/12/22 07:38:39;;;;;;;11.50;4.23;;;-0.10;99.90;;;;;;5035780;28;20025;-87
2021/12/22 07:41:07;;;;;;;10.43;4.87;;;0.00;99.90;;;;;;5018235;28;20400;-88
2021/12/22 07:43:34;;;;;;;8.77;4.17;;;0.00;99.90;;;;;;5001321;28;20033;-87
2021/12/22 07:46:01;;;;;;;10.87;4.63;;;0.00;99.90;;;;;;5001666;28;20396;-87
2021/12/22 07:48:27;;;;;;;13.67;6.43;;;0.00;99.90;;;;;;5001613;28;20068;-87
2021/12/22 07:50:54;;;;;;;9.73;4.70;;;0.00;99.90;;;;;;5017595;28;20029;-87
2021/12/22 07:53:20;;;;;;;11.17;4.80;;;0.00;99.90;;;;;;5018130;28;20032;-87
2021/12/22 07:55:48;;;;;;;9.10;4.83;;;0.00;99.90;;;;;;5019024;28;20065;-87
2021/12/22 07:58:14;;;;;;;9.60;4.67;;;0.00;99.90;;;;;;5001271;28;20029;-87
2021/12/22 08:00:40;;;;;;;10.80;4.60;;;0.10;99.90;;;;;;5001114;28;20124;-87
2021/12/22 08:03:06;;;;;;;14.03;5.33;;;0.00;99.90;;;;;;5001351;28;20065;-87
2021/12/22 08:05:32;;;;;;;12.80;4.90;;;0.10;99.90;;;;;;5018116;28;20021;-87
2021/12/22 08:07:59;;;;;;;10.97;4.37;;;0.10;99.90;;;;;;5017851;28;20033;-87
2021/12/22 08:10:25;;;;;;;16.23;6.97;;;0.20;99.90;;;;;;5001394;28;20029;-87
2021/12/22 08:12:51;;;;;;;10.00;4.70;;;0.20;99.90;;;;;;5018047;28;20376;-89
2021/12/22 08:15:17;;;;;;;11.17;4.50;;;0.30;99.90;;;;;;5003266;28;20051;-87
2021/12/22 08:17:43;;;;;;;12.00;4.57;;;0.30;99.90;;;;;;5019277;28;20034;-87
2021/12/22 08:20:10;;;;;;;9.00;4.03;;;0.30;99.90;;;;;;5002648;28;20029;-87
2021/12/22 08:22:36;;;;;;;8.43;4.07;;;0.40;99.90;;;;;;5001431;28;20499;-86
2021/12/22 08:25:04;;;;;;;8.23;3.93;;;0.40;99.90;;;;;;5001358;28;20026;-87
2021/12/22 08:27:29;;;;;;;8.47;3.97;;;0.40;99.90;;;;;;5017725;28;20511;-87
2021/12/22 08:29:55;;;;;;;8.33;3.67;;;0.50;99.90;;;;;;5017588;28;20165;-87
2021/12/22 08:32:21;;;;;;;9.40;4.47;;;0.50;99.90;;;;;;5001059;28;20064;-87
2021/12/22 08:34:52;;;;;;;11.03;4.47;;;0.50;99.90;;;;;;5000379;28;20140;-87
2021/12/22 08:40:03;;;;;;;10.67;4.40;;;0.60;99.90;;;;;;5017372;28;20057;-87
2021/12/22 08:42:29;;;;;;;7.47;4.00;;;0.70;99.90;;;;;;5001128;28;20036;-88
2021/12/22 08:44:56;;;;;;;9.83;4.07;;;0.70;99.90;;;;;;5001266;28;20381;-87
2021/12/22 08:47:22;;;;;;;8.47;4.23;;;0.80;99.90;;;;;;5017206;28;20035;-87
2021/12/22 08:49:48;;;;;;;10.60;4.37;;;0.70;99.90;;;;;;5000539;28;20037;-87
2021/12/22 08:52:14;;;;;;;15.27;4.67;;;0.80;99.90;;;;;;5000380;28;20060;-87
2021/12/22 08:54:40;;;;;;;9.43;4.40;;;0.70;99.90;;;;;;5017160;28;20123;-87
2021/12/22 08:57:06;;;;;;;9.60;4.57;;;0.80;99.90;;;;;;5016651;28;20040;-87
2021/12/22 08:59:32;;;;;;;9.83;4.77;;;0.70;99.90;;;;;;5000589;28;20030;-87
2021/12/22 09:01:58;;;;;;;12.30;6.20;;;0.80;99.90;;;;;;5000499;28;20036;-87
2021/12/22 09:04:24;;;;;;;8.27;4.30;;;0.80;99.90;;;;;;5034488;28;20121;-87
2021/12/22 09:06:51;;;;;;;8.27;4.30;;;0.90;99.90;;;;;;5016690;28;20119;-87
2021/12/22 09:09:18;;;;;;;12.23;4.87;;;0.90;99.90;;;;;;5000293;28;20025;-87
2021/12/22 09:11:45;;;;;;;8.97;4.27;;;1.00;99.90;;;;;;5017003;28;20472;-87
2021/12/22 09:14:12;;;;;;;9.23;5.27;;;1.00;99.90;;;;;;5000357;28;20506;-87
2021/12/22 09:16:39;;;;;;;9.90;4.60;;;1.00;99.90;;;;;;5017078;28;20068;-87
2021/12/22 09:19:06;;;;;;;11.33;4.83;;;1.10;99.90;;;;;;5016932;28;20053;-87
2021/12/22 09:21:33;;;;;;;10.27;4.37;;;1.10;99.90;;;;;;5000279;28;20036;-87
2021/12/22 09:23:59;;;;;;;11.60;4.97;;;1.10;99.90;;;;;;5017276;28;20027;-87
2021/12/22 09:26:25;;;;;;;12.83;4.53;;;1.20;99.90;;;;;;5017421;28;20399;-87
2021/12/22 09:28:54;;;;;;;9.37;4.57;;;1.20;99.90;;;;;;5000759;28;20061;-87
2021/12/22 09:31:21;;;;;;;9.73;4.88;;;1.20;99.90;;;;;;5003837;28;20030;-88
